Time;durP1;ratioP1;P1;durP2;ratioP2;P2;SDS_P1;SDS_P2;PMS_P1;PMS_P2;Temp;Humidity;BMP_temperature;BMP_pressure;BME280_temperature;BME280_humidity;BME280_pressure;Samples;Min_cycle;Max_cycle;Signal;HPM_P1;HPM_P2
2022/08/26 00:00:33;;;;;;;411.70;241.88;;;;;;;;;;4951352;28;20272;-70
2022/08/26 00:02:59;;;;;;;408.73;236.40;;;;;;;;;;4964814;28;20179;-70
2022/08/26 00:05:25;;;;;;;420.50;238.57;;;;;;;;;;4947956;28;20218;-70
2022/08/26 00:07:52;;;;;;;439.63;257.52;;;;;;;;;;4950294;28;20229;-70
2022/08/26 00:10:18;;;;;;;435.67;250.95;;;;;;;;;;4952906;28;20293;-70
2022/08/26 00:12:44;;;;;;;462.20;262.52;;;;;;;;;;4949509;28;20225;-69
2022/08/26 00:15:12;;;;;;;419.58;244.23;;;;;;;;;;4951730;28;20272;-70
2022/08/26 00:17:38;;;;;;;391.48;228.45;;;;;;;;;;4952379;28;20846;-70
2022/08/26 00:20:05;;;;;;;433.40;250.00;;;;;;;;;;4952658;28;20245;-70
2022/08/26 00:22:31;;;;;;;408.67;234.25;;;;;;;;;;4948436;28;20241;-70
2022/08/26 00:24:57;;;;;;;391.80;228.35;;;;;;;;;;4950292;28;20292;-70
2022/08/26 00:27:23;;;;;;;388.98;228.88;;;;;;;;;;4953969;28;20233;-70
2022/08/26 00:29:49;;;;;;;403.92;236.15;;;;;;;;;;4951268;28;20230;-70
2022/08/26 00:32:15;;;;;;;416.48;239.82;;;;;;;;;;4947830;28;20226;-70
2022/08/26 00:34:41;;;;;;;426.23;240.85;;;;;;;;;;4948936;28;20229;-70
2022/08/26 00:37:07;;;;;;;419.30;244.20;;;;;;;;;;4950677;28;20751;-70
2022/08/26 00:39:33;;;;;;;404.52;236.00;;;;;;;;;;4948631;28;20292;-69
2022/08/26 00:41:59;;;;;;;411.80;242.40;;;;;;;;;;4952357;28;20619;-70
2022/08/26 00:44:25;;;;;;;415.08;242.82;;;;;;;;;;4953178;28;20264;-70
2022/08/26 00:46:54;;;;;;;420.02;246.73;;;;;;;;;;4949731;28;21405;-70
2022/08/26 00:49:26;;;;;;;392.17;228.50;;;;;;;;;;4948088;28;20810;-70
2022/08/26 00:51:53;;;;;;;445.30;253.40;;;;;;;;;;4948142;28;20249;-70
2022/08/26 00:54:20;;;;;;;429.35;245.80;;;;;;;;;;4947229;28;20297;-70
2022/08/26 00:57:08;;;;;;;462.30;263.60;;;;;;;;;;4947353;28;20206;-70
2022/08/26 00:59:34;;;;;;;401.50;231.85;;;;;;;;;;4949187;28;20221;-70
2022/08/26 01:02:00;;;;;;;423.95;244.07;;;;;;;;;;4955232;28;20305;-70
2022/08/26 01:04:26;;;;;;;368.20;215.40;;;;;;;;;;4954713;28;20217;-70
2022/08/26 01:06:53;;;;;;;403.25;235.32;;;;;;;;;;4954185;28;25134;-69
2022/08/26 01:09:20;;;;;;;379.65;221.82;;;;;;;;;;4951725;28;20254;-70
2022/08/26 01:11:49;;;;;;;430.95;247.38;;;;;;;;;;4946439;28;20209;-70
2022/08/26 01:14:16;;;;;;;412.48;233.90;;;;;;;;;;4947187;28;20363;-70
2022/08/26 01:16:42;;;;;;;412.00;233.20;;;;;;;;;;4951147;28;20217;-70
2022/08/26 01:19:29;;;;;;;436.40;245.20;;;;;;;;;;4946914;28;20277;-70
2022/08/26 01:21:57;;;;;;;397.92;232.60;;;;;;;;;;4952824;28;20210;-69
2022/08/26 01:24:26;;;;;;;399.13;229.65;;;;;;;;;;4958945;28;20296;-69
2022/08/26 01:26:52;;;;;;;433.27;246.85;;;;;;;;;;4948624;28;20381;-70
2022/08/26 01:29:19;;;;;;;440.00;252.98;;;;;;;;;;4963515;28;20238;-70
2022/08/26 01:31:47;;;;;;;373.25;218.63;;;;;;;;;;4950660;28;20210;-70
2022/08/26 01:34:28;;;;;;;407.42;238.98;;;;;;;;;;4950000;28;20954;-70
2022/08/26 01:36:58;;;;;;;390.25;224.45;;;;;;;;;;4955842;28;20308;-70
2022/08/26 01:39:24;;;;;;;412.70;238.43;;;;;;;;;;4951328;28;20232;-68
2022/08/26 01:41:53;;;;;;;411.25;236.57;;;;;;;;;;4946127;28;20194;-70
2022/08/26 01:44:20;;;;;;;387.98;226.98;;;;;;;;;;4950558;28;20302;-70
2022/08/26 01:46:48;;;;;;;408.20;236.27;;;;;;;;;;4945786;28;20221;-69
2022/08/26 01:49:14;;;;;;;419.00;240.15;;;;;;;;;;4946517;28;20276;-70
2022/08/26 01:51:43;;;;;;;402.30;231.18;;;;;;;;;;4954256;28;20194;-70
2022/08/26 01:54:09;;;;;;;412.33;238.73;;;;;;;;;;4950907;28;20186;-70
2022/08/26 01:56:35;;;;;;;417.65;243.07;;;;;;;;;;4968730;28;20704;-70
2022/08/26 01:59:03;;;;;;;383.42;224.77;;;;;;;;;;4954756;28;20272;-70
2022/08/26 02:01:29;;;;;;;389.13;230.40;;;;;;;;;;4954072;28;20214;-70
2022/08/26 02:04:06;;;;;;;410.48;240.02;;;;;;;;;;4964357;28;20214;-70
2022/08/26 02:06:32;;;;;;;374.98;221.82;;;;;;;;;;4965296;28;20182;-69
2022/08/26 02:09:00;;;;;;;405.98;242.70;;;;;;;;;;4960792;28;20335;-69
2022/08/26 02:11:26;;;;;;;424.00;246.65;;;;;;;;;;4949691;28;20289;-70
2022/08/26 02:13:56;;;;;;;419.70;247.77;;;;;;;;;;4950922;28;20787;-70
2022/08/26 02:16:25;;;;;;;443.23;267.10;;;;;;;;;;4955634;28;20222;-70
2022/08/26 02:18:51;;;;;;;437.10;253.63;;;;;;;;;;4955696;28;20981;-70
2022/08/26 02:21:17;;;;;;;395.75;236.43;;;;;;;;;;4958677;28;20247;-69
2022/08/26 02:23:43;;;;;;;402.65;244.55;;;;;;;;;;4962598;28;21294;-70
2022/08/26 02:26:14;;;;;;;454.90;267.20;;;;;;;;;;4951446;28;20214;-70
2022/08/26 02:28:45;;;;;;;437.10;250.25;;;;;;;;;;4949185;28;20307;-70
2022/08/26 02:31:11;;;;;;;420.05;255.32;;;;;;;;;;4949246;28;20224;-69
2022/08/26 02:33:37;;;;;;;406.92;245.82;;;;;;;;;;4956936;28;20794;-69
2022/08/26 02:36:04;;;;;;;398.95;241.48;;;;;;;;;;4957479;28;20666;-70
2022/08/26 02:38:30;;;;;;;597.05;329.63;;;;;;;;;;4972355;23;20213;-71
2022/08/26 02:40:56;;;;;;;421.15;236.60;;;;;;;;;;4951942;28;20245;-70
2022/08/26 02:43:22;;;;;;;409.27;230.98;;;;;;;;;;4951997;28;20217;-70
2022/08/26 02:45:48;;;;;;;420.55;237.52;;;;;;;;;;4951565;28;20707;-70
2022/08/26 02:48:15;;;;;;;384.85;219.07;;;;;;;;;;4952225;28;20186;-71
2022/08/26 02:50:42;;;;;;;415.17;232.20;;;;;;;;;;4963102;28;20210;-70
2022/08/26 02:53:08;;;;;;;364.02;209.32;;;;;;;;;;4962789;28;20680;-69
2022/08/26 02:55:34;;;;;;;440.77;248.95;;;;;;;;;;4955821;28;20253;-70
2022/08/26 02:58:00;;;;;;;411.13;229.25;;;;;;;;;;4954219;28;20616;-70
2022/08/26 03:00:26;;;;;;;362.08;214.57;;;;;;;;;;4960187;28;20198;-70
2022/08/26 03:02:52;;;;;;;412.05;238.38;;;;;;;;;;4962960;28;20225;-70
2022/08/26 03:05:19;;;;;;;413.75;238.45;;;;;;;;;;4958164;28;20726;-70
2022/08/26 03:07:45;;;;;;;416.38;237.60;;;;;;;;;;4952865;28;20313;-70
2022/08/26 03:10:12;;;;;;;424.98;242.77;;;;;;;;;;4953470;28;20241;-70
2022/08/26 03:12:37;;;;;;;426.80;247.23;;;;;;;;;;4945175;28;20183;-71
2022/08/26 03:15:04;;;;;;;388.08;227.10;;;;;;;;;;4956016;28;20718;-70
2022/08/26 03:17:30;;;;;;;381.40;223.45;;;;;;;;;;4958948;28;20583;-70
2022/08/26 03:19:56;;;;;;;403.45;232.27;;;;;;;;;;4955944;28;20222;-70
2022/08/26 03:22:22;;;;;;;418.90;241.98;;;;;;;;;;4948620;28;20707;-70
2022/08/26 03:24:48;;;;;;;429.85;243.45;;;;;;;;;;4956538;28;20219;-70
2022/08/26 03:27:14;;;;;;;416.00;237.45;;;;;;;;;;4950526;28;20222;-70
2022/08/26 03:32:25;;;;;;;407.17;232.55;;;;;;;;;;4951605;28;20385;-70
2022/08/26 03:34:51;;;;;;;432.13;245.15;;;;;;;;;;4954552;28;21786;-69
2022/08/26 03:37:17;;;;;;;410.80;234.10;;;;;;;;;;4953516;28;20210;-70
2022/08/26 03:39:43;;;;;;;430.50;243.30;;;;;;;;;;4951853;28;20291;-70
2022/08/26 03:42:10;;;;;;;444.95;248.95;;;;;;;;;;4954754;28;20336;-70
2022/08/26 03:44:36;;;;;;;394.50;226.60;;;;;;;;;;4953203;28;20787;-70
2022/08/26 03:47:02;;;;;;;;;;;;;;;;;;4955974;28;20679;-70
2022/08/26 03:49:28;;;;;;;391.60;222.70;;;;;;;;;;4951599;28;25091;-69
2022/08/26 03:51:54;;;;;;;390.90;216.20;;;;;;;;;;4954428;28;20255;-70
2022/08/26 03:54:20;;;;;;;374.50;211.85;;;;;;;;;;4955932;28;20175;-70
2022/08/26 03:56:46;;;;;;;436.40;244.30;;;;;;;;;;4950860;28;20271;-71
2022/08/26 03:59:12;;;;;;;415.92;232.48;;;;;;;;;;4949026;28;20211;-71
2022/08/26 04:01:38;;;;;;;448.93;245.27;;;;;;;;;;4955581;28;20210;-71
2022/08/26 04:04:04;;;;;;;403.50;222.43;;;;;;;;;;4954135;28;20466;-69
2022/08/26 04:06:31;;;;;;;416.40;236.90;;;;;;;;;;4950750;28;20214;-70
2022/08/26 04:08:59;;;;;;;394.60;218.68;;;;;;;;;;4953786;28;20208;-70
2022/08/26 04:11:30;;;;;;;350.20;192.85;;;;;;;;;;4966862;28;20225;-70
2022/08/26 04:13:58;;;;;;;436.27;230.07;;;;;;;;;;4956586;28;20241;-70
2022/08/26 04:16:24;;;;;;;419.70;221.10;;;;;;;;;;4953272;28;20308;-70
2022/08/26 04:18:50;;;;;;;406.30;216.45;;;;;;;;;;4951599;28;20313;-71
2022/08/26 04:21:16;;;;;;;413.60;220.40;;;;;;;;;;4953333;28;20206;-70
2022/08/26 04:23:42;;;;;;;473.40;250.60;;;;;;;;;;4952108;28;20273;-70
2022/08/26 04:26:07;;;;;;;390.75;210.75;;;;;;;;;;4953530;28;20572;-70
2022/08/26 04:28:33;;;;;;;404.27;217.55;;;;;;;;;;4954231;28;20615;-70
2022/08/26 04:30:59;;;;;;;370.40;203.43;;;;;;;;;;4957598;28;20210;-70
2022/08/26 04:33:25;;;;;;;389.23;212.60;;;;;;;;;;4952607;28;20183;-71
2022/08/26 04:35:58;;;;;;;404.33;221.60;;;;;;;;;;4953805;28;20237;-70
2022/08/26 04:38:24;;;;;;;387.20;216.52;;;;;;;;;;4968557;28;20218;-69
2022/08/26 04:40:50;;;;;;;457.05;241.23;;;;;;;;;;4946356;28;20221;-70
2022/08/26 04:43:16;;;;;;;406.75;226.25;;;;;;;;;;4948799;28;20268;-71
2022/08/26 04:45:42;;;;;;;414.80;226.05;;;;;;;;;;4957801;28;20182;-70
2022/08/26 04:48:08;;;;;;;357.45;196.98;;;;;;;;;;4962719;28;20652;-70
2022/08/26 04:50:34;;;;;;;390.52;223.13;;;;;;;;;;4958039;28;20225;-70
2022/08/26 04:53:00;;;;;;;347.60;206.35;;;;;;;;;;4963092;28;20218;-70
2022/08/26 04:55:26;;;;;;;384.13;212.55;;;;;;;;;;4953736;28;20222;-71
2022/08/26 04:57:52;;;;;;;437.73;243.55;;;;;;;;;;4948354;28;20206;-70
2022/08/26 05:00:18;;;;;;;408.40;225.48;;;;;;;;;;4951149;28;20199;-70
2022/08/26 05:02:45;;;;;;;391.17;220.48;;;;;;;;;;4954455;28;20210;-71
2022/08/26 05:05:11;;;;;;;350.65;207.25;;;;;;;;;;4958222;28;20218;-70
2022/08/26 05:07:37;;;;;;;348.40;193.57;;;;;;;;;;4958684;28;20690;-70
2022/08/26 05:10:03;;;;;;;374.52;210.65;;;;;;;;;;4956178;28;20272;-71
2022/08/26 05:12:29;;;;;;;389.88;217.88;;;;;;;;;;4956595;28;20301;-70
2022/08/26 05:14:55;;;;;;;418.95;234.50;;;;;;;;;;4952169;28;20548;-70
2022/08/26 05:17:21;;;;;;;386.25;230.05;;;;;;;;;;4954990;28;20218;-71
2022/08/26 05:19:49;;;;;;;396.60;229.45;;;;;;;;;;4958959;28;20222;-68
2022/08/26 05:22:16;;;;;;;338.75;205.10;;;;;;;;;;4956795;28;20206;-68
2022/08/26 05:24:42;;;;;;;383.33;222.85;;;;;;;;;;4958391;28;20181;-67
2022/08/26 05:27:08;;;;;;;411.05;239.82;;;;;;;;;;4951738;28;20182;-68
2022/08/26 05:29:34;;;;;;;400.60;227.40;;;;;;;;;;4956004;28;20232;-69
2022/08/26 05:32:00;;;;;;;429.38;248.25;;;;;;;;;;4950997;28;19949;-68
2022/08/26 05:34:26;;;;;;;397.45;232.82;;;;;;;;;;4949816;28;20214;-69
2022/08/26 05:36:52;;;;;;;431.92;244.63;;;;;;;;;;4952390;28;21427;-68
2022/08/26 05:39:20;;;;;;;388.73;227.30;;;;;;;;;;4963820;28;20658;-69
2022/08/26 05:41:46;;;;;;;387.35;226.95;;;;;;;;;;4962890;28;20356;-68
2022/08/26 05:44:14;;;;;;;447.55;255.55;;;;;;;;;;4962157;28;20983;-69
2022/08/26 05:46:40;;;;;;;443.67;253.63;;;;;;;;;;4949687;28;21962;-68
2022/08/26 05:49:07;;;;;;;366.25;216.55;;;;;;;;;;4951627;28;20431;-68
2022/08/26 05:51:33;;;;;;;413.48;238.65;;;;;;;;;;4959088;28;20804;-69
2022/08/26 05:54:01;;;;;;;374.58;224.50;;;;;;;;;;4972435;28;20209;-68
2022/08/26 05:56:27;;;;;;;459.70;262.75;;;;;;;;;;4952917;28;20221;-69
2022/08/26 05:58:54;;;;;;;458.05;263.40;;;;;;;;;;4950455;28;20223;-69
2022/08/26 06:01:24;;;;;;;383.50;228.50;;;;;;;;;;4953281;28;20584;-69
2022/08/26 06:03:51;;;;;;;384.20;215.50;;;;;;;;;;4966369;28;20596;-69
2022/08/26 06:06:19;;;;;;;386.13;230.35;;;;;;;;;;4958516;28;20186;-69
2022/08/26 06:08:45;;;;;;;401.75;234.95;;;;;;;;;;4961016;28;20231;-69
2022/08/26 06:11:12;;;;;;;371.90;223.40;;;;;;;;;;4958012;28;20228;-71
2022/08/26 06:13:39;;;;;;;394.73;217.93;;;;;;;;;;4961359;28;20237;-65
2022/08/26 06:16:07;;;;;;;378.10;227.98;;;;;;;;;;4942233;28;20786;-74
2022/08/26 06:18:35;;;;;;;452.87;261.87;;;;;;;;;;4944582;28;23165;-68
2022/08/26 06:21:10;;;;;;;444.08;261.20;;;;;;;;;;4948202;28;20353;-67
2022/08/26 06:26:21;;;;;;;407.80;236.80;;;;;;;;;;4952933;28;20312;-71
2022/08/26 06:28:48;;;;;;;396.83;231.18;;;;;;;;;;4952485;28;20758;-71
2022/08/26 06:31:14;;;;;;;447.27;258.48;;;;;;;;;;4951748;28;20242;-71
2022/08/26 06:33:41;;;;;;;447.67;254.20;;;;;;;;;;4957002;28;20179;-70
2022/08/26 06:36:07;;;;;;;426.60;241.98;;;;;;;;;;4957930;28;20241;-71
2022/08/26 06:38:33;;;;;;;351.73;213.68;;;;;;;;;;4958933;28;20313;-73
2022/08/26 06:40:59;;;;;;;421.13;249.40;;;;;;;;;;4958430;28;20683;-66
2022/08/26 06:43:26;;;;;;;381.77;233.02;;;;;;;;;;4953938;28;20217;-64
2022/08/26 06:45:59;;;;;;;389.20;237.50;;;;;;;;;;4949049;28;20215;-64
2022/08/26 06:48:25;;;;;;;418.83;250.02;;;;;;;;;;4960393;28;20186;-66
2022/08/26 06:51:00;;;;;;;370.00;225.13;;;;;;;;;;4966173;28;20270;-66
2022/08/26 06:53:26;;;;;;;399.38;243.23;;;;;;;;;;4960849;28;20257;-66
2022/08/26 06:55:52;;;;;;;408.45;246.70;;;;;;;;;;4962984;28;20239;-65
2022/08/26 06:58:18;;;;;;;438.40;258.13;;;;;;;;;;4958104;28;20858;-66
2022/08/26 07:00:44;;;;;;;426.23;250.30;;;;;;;;;;4956845;28;20222;-66
2022/08/26 07:03:10;;;;;;;397.85;235.77;;;;;;;;;;4959557;28;20862;-65
2022/08/26 07:05:37;;;;;;;436.63;261.30;;;;;;;;;;4959086;28;20217;-66
2022/08/26 07:08:04;;;;;;;389.40;234.60;;;;;;;;;;4961529;28;20221;-64
2022/08/26 07:10:30;;;;;;;417.70;254.52;;;;;;;;;;4958767;28;20244;-64
2022/08/26 07:12:56;;;;;;;428.60;259.48;;;;;;;;;;4961353;28;20715;-65
2022/08/26 07:15:22;;;;;;;414.88;255.85;;;;;;;;;;4959488;28;21279;-65
2022/08/26 07:17:48;;;;;;;364.83;230.65;;;;;;;;;;4960837;28;20214;-64
2022/08/26 07:20:14;;;;;;;460.60;287.08;;;;;;;;;;4953454;28;20277;-61
2022/08/26 07:22:40;;;;;;;457.85;279.13;;;;;;;;;;4943077;28;20218;-66
2022/08/26 07:25:06;;;;;;;447.60;280.10;;;;;;;;;;4950061;28;20217;-62
2022/08/26 07:27:33;;;;;;;429.63;268.90;;;;;;;;;;4951416;28;20338;-62
2022/08/26 07:29:59;;;;;;;370.88;242.70;;;;;;;;;;4945963;28;20210;-62
2022/08/26 07:32:25;;;;;;;372.88;241.90;;;;;;;;;;4953564;28;20215;-63
2022/08/26 07:34:51;;;;;;;414.42;263.73;;;;;;;;;;4955103;28;20216;-63
2022/08/26 07:37:17;;;;;;;457.83;284.13;;;;;;;;;;4952278;28;20222;-68
2022/08/26 07:39:43;;;;;;;;;;;;;;;;;;4951800;28;20245;-68
2022/08/26 07:42:11;;;;;;;;;;;;;;;;;;4959065;28;19942;-68
2022/08/26 07:44:38;;;;;;;;;;;;;;;;;;4964079;28;19954;-68
2022/08/26 07:47:04;;;;;;;;;;;;;;;;;;4961142;28;20698;-68
2022/08/26 07:49:30;;;;;;;;;;;;;;;;;;4963926;28;20016;-68
2022/08/26 07:51:56;;;;;;;;;;;;;;;;;;4968798;28;19984;-68
2022/08/26 07:54:22;;;;;;;;;;;;;;;;;;4965002;28;19946;-68
2022/08/26 07:56:48;;;;;;;;;;;;;;;;;;4968035;28;19949;-67
2022/08/26 07:59:13;;;;;;;;;;;;;;;;;;4968561;28;20057;-67
2022/08/26 08:01:39;;;;;;;;;;;;;;;;;;4967208;28;20028;-67
2022/08/26 08:04:06;;;;;;;;;;;;;;;;;;4964169;28;19960;-67
2022/08/26 08:06:32;;;;;;;;;;;;;;;;;;4958692;28;19937;-67
2022/08/26 08:08:59;;;;;;;;;;;;;;;;;;4970698;28;20141;-67
2022/08/26 08:11:27;;;;;;;;;;;;;;;;;;4966765;28;23058;-67
2022/08/26 08:13:53;;;;;;;;;;;;;;;;;;4964596;28;20398;-67
2022/08/26 08:16:19;;;;;;;;;;;;;;;;;;4969682;28;19964;-67
2022/08/26 08:18:45;;;;;;;;;;;;;;;;;;4969421;28;19976;-67
2022/08/26 08:21:11;;;;;;;;;;;;;;;;;;4970879;28;19944;-67
2022/08/26 08:23:37;;;;;;;;;;;;;;;;;;4969121;28;19956;-67
2022/08/26 08:26:03;;;;;;;;;;;;;;;;;;4965112;28;19949;-67
2022/08/26 08:28:29;;;;;;;;;;;;;;;;;;4966353;28;20000;-67
2022/08/26 08:30:55;;;;;;;;;;;;;;;;;;4969256;28;19954;-67
2022/08/26 08:33:21;;;;;;;;;;;;;;;;;;4969018;28;20011;-67
2022/08/26 08:35:48;;;;;;;;;;;;;;;;;;4972091;28;19965;-67
2022/08/26 08:38:13;;;;;;;;;;;;;;;;;;4963096;28;20399;-67
2022/08/26 08:40:40;;;;;;;;;;;;;;;;;;5015480;23;20051;-53
2022/08/26 08:43:06;;;;;;;;;;;;;;;;;;5010414;28;19949;-53
2022/08/26 08:45:32;;;;;;;374.80;269.63;;;;;;;;;;5009072;28;20580;-53
2022/08/26 08:48:04;;;;;;;385.50;278.60;;;;;;;;;;5008866;28;20188;-53
2022/08/26 08:50:32;;;;;;;369.70;264.80;;;;;;;;;;5007186;28;20246;-53
2022/08/26 08:53:19;;;;;;;385.75;278.25;;;;;;;;;;5008522;28;25148;-53
2022/08/26 08:55:49;;;;;;;368.10;267.10;;;;;;;;;;5009091;28;20209;-53
2022/08/26 08:58:20;;;;;;;373.40;265.60;;;;;;;;;;5009326;28;20216;-53
2022/08/26 09:00:53;;;;;;;365.25;255.30;;;;;;;;;;5009230;28;20204;-52
2022/08/26 09:03:39;;;;;;;364.25;253.90;;;;;;;;;;5009669;28;21050;-53
2022/08/26 09:06:16;;;;;;;370.70;266.63;;;;;;;;;;5001474;28;20401;-53
2022/08/26 09:08:42;;;;;;;379.45;260.75;;;;;;;;;;5009548;28;20309;-54
2022/08/26 09:11:08;;;;;;;379.85;272.10;;;;;;;;;;5009272;28;20672;-53
2022/08/26 09:13:35;;;;;;;383.60;266.55;;;;;;;;;;5009000;28;20243;-53
2022/08/26 09:16:06;;;;;;;363.63;256.90;;;;;;;;;;5008874;28;20224;-53
2022/08/26 09:18:44;;;;;;;379.38;262.33;;;;;;;;;;5009162;28;20235;-53
2022/08/26 09:21:12;;;;;;;356.42;247.48;;;;;;;;;;5010129;28;20184;-53
2022/08/26 09:23:39;;;;;;;370.63;254.20;;;;;;;;;;5009340;28;20227;-53
2022/08/26 09:26:17;;;;;;;374.38;256.95;;;;;;;;;;5008529;28;20236;-53
2022/08/26 09:28:48;;;;;;;371.00;250.30;;;;;;;;;;5008987;28;20227;-53
2022/08/26 09:31:19;;;;;;;362.33;252.55;;;;;;;;;;5009027;28;20221;-53
2022/08/26 09:33:45;;;;;;;381.67;262.33;;;;;;;;;;5009137;28;20216;-52
2022/08/26 09:36:13;;;;;;;387.67;267.42;;;;;;;;;;5010043;28;20526;-53
2022/08/26 09:38:40;;;;;;;373.60;269.08;;;;;;;;;;5009589;28;20599;-53
2022/08/26 09:41:07;;;;;;;363.67;264.40;;;;;;;;;;5009366;28;20220;-53
2022/08/26 09:43:33;;;;;;;370.92;270.30;;;;;;;;;;5009195;28;20467;-53
2022/08/26 09:46:19;;;;;;;389.75;281.23;;;;;;;;;;5009317;28;20213;-53
2022/08/26 09:48:45;;;;;;;371.48;264.30;;;;;;;;;;5009029;28;20616;-53
2022/08/26 09:51:25;;;;;;;380.08;263.95;;;;;;;;;;5009666;28;20177;-53
2022/08/26 09:53:52;;;;;;;369.08;266.08;;;;;;;;;;5009139;28;20213;-53
2022/08/26 09:56:21;;;;;;;361.40;268.35;;;;;;;;;;5009452;28;20225;-53
2022/08/26 09:58:47;;;;;;;384.63;278.75;;;;;;;;;;5009179;28;20217;-53
2022/08/26 10:01:15;;;;;;;353.80;257.38;;;;;;;;;;5009936;28;20216;-53
2022/08/26 10:03:41;;;;;;;394.60;275.55;;;;;;;;;;5008447;28;20192;-53
2022/08/26 10:06:21;;;;;;;374.05;267.52;;;;;;;;;;5010089;28;20177;-52
2022/08/26 10:08:49;;;;;;;373.08;266.65;;;;;;;;;;5008330;28;20217;-53
2022/08/26 10:11:24;;;;;;;357.52;259.35;;;;;;;;;;5008148;28;20476;-53
2022/08/26 10:13:59;;;;;;;390.55;286.83;;;;;;;;;;5007820;28;20224;-53
2022/08/26 10:16:39;;;;;;;379.50;268.08;;;;;;;;;;5008193;28;20228;-53
2022/08/26 10:19:06;;;;;;;379.35;273.25;;;;;;;;;;5008145;28;20224;-53
2022/08/26 10:21:45;;;;;;;394.17;288.20;;;;;;;;;;5008396;28;20173;-53
2022/08/26 10:24:14;;;;;;;384.88;278.83;;;;;;;;;;5012185;28;20192;-53
2022/08/26 10:26:40;;;;;;;370.30;282.08;;;;;;;;;;5012010;28;20299;-53
2022/08/26 10:29:18;;;;;;;385.48;286.05;;;;;;;;;;5011908;28;20289;-53
2022/08/26 10:32:01;;;;;;;389.42;286.50;;;;;;;;;;5011765;28;20212;-53
2022/08/26 10:34:27;;;;;;;371.63;275.70;;;;;;;;;;5011626;28;20217;-53
2022/08/26 10:36:57;;;;;;;368.48;276.38;;;;;;;;;;5012043;28;20232;-53
2022/08/26 10:39:26;;;;;;;381.67;291.13;;;;;;;;;;5011822;28;20657;-53
2022/08/26 10:41:55;;;;;;;377.50;290.58;;;;;;;;;;5012022;28;20209;-53
2022/08/26 10:44:22;;;;;;;390.30;306.10;;;;;;;;;;5011526;28;20224;-52
2022/08/26 10:46:51;;;;;;;386.23;302.48;;;;;;;;;;5011576;28;20227;-53
2022/08/26 10:49:17;;;;;;;391.75;319.92;;;;;;;;;;5011432;28;20738;-53
2022/08/26 10:51:46;;;;;;;389.33;313.27;;;;;;;;;;5011571;28;20656;-53
2022/08/26 10:54:12;;;;;;;392.60;312.85;;;;;;;;;;5012135;28;20197;-53
2022/08/26 10:56:59;;;;;;;376.70;312.35;;;;;;;;;;5011663;28;20283;-53
2022/08/26 10:59:31;;;;;;;364.05;289.80;;;;;;;;;;5011082;28;20243;-53
2022/08/26 11:02:02;;;;;;;385.58;300.10;;;;;;;;;;5011402;28;20712;-53
2022/08/26 11:04:37;;;;;;;359.15;286.90;;;;;;;;;;5011018;28;20221;-53
2022/08/26 11:07:22;;;;;;;379.52;300.10;;;;;;;;;;5011834;28;20212;-53
2022/08/26 11:09:48;;;;;;;396.98;310.30;;;;;;;;;;5010547;28;20636;-52
2022/08/26 11:12:33;;;;;;;403.48;319.90;;;;;;;;;;5010883;28;20176;-53
2022/08/26 11:14:59;;;;;;;384.92;305.52;;;;;;;;;;5010107;28;20216;-53
2022/08/26 11:17:48;;;;;;;390.25;308.98;;;;;;;;;;5010507;28;20224;-53
2022/08/26 11:20:32;;;;;;;370.58;313.20;;;;;;;;;;5009834;28;20508;-53
2022/08/26 11:23:17;;;;;;;409.10;331.35;;;;;;;;;;5008244;28;20899;-53
2022/08/26 11:25:55;;;;;;;397.48;320.05;;;;;;;;;;5009179;28;20209;-53
2022/08/26 11:28:39;;;;;;;392.35;322.38;;;;;;;;;;5009408;28;20228;-53
2022/08/26 11:31:10;;;;;;;395.40;324.48;;;;;;;;;;5009221;28;20205;-53
2022/08/26 11:33:50;;;;;;;388.08;325.73;;;;;;;;;;5008704;28;20216;-53
2022/08/26 11:36:28;;;;;;;399.52;318.63;;;;;;;;;;5009711;28;20204;-53
2022/08/26 11:38:54;;;;;;;403.83;328.48;;;;;;;;;;5009198;28;20209;-53
2022/08/26 11:41:21;;;;;;;397.85;320.02;;;;;;;;;;5008955;28;20723;-53
2022/08/26 11:43:50;;;;;;;410.50;326.63;;;;;;;;;;5007788;28;20641;-53
2022/08/26 11:46:23;;;;;;;393.13;319.55;;;;;;;;;;5005851;28;20217;-52
2022/08/26 11:48:49;;;;;;;394.52;315.13;;;;;;;;;;5007840;28;20212;-53
2022/08/26 11:51:15;;;;;;;392.15;311.65;;;;;;;;;;5010002;28;20178;-53
2022/08/26 11:53:45;;;;;;;383.35;306.88;;;;;;;;;;5009735;28;20562;-53
2022/08/26 11:56:28;;;;;;;393.80;321.05;;;;;;;;;;5010005;28;20232;-53
2022/08/26 11:58:56;;;;;;;370.73;302.95;;;;;;;;;;5009799;28;20686;-53
2022/08/26 12:01:26;;;;;;;380.60;310.15;;;;;;;;;;5009877;28;20715;-53
2022/08/26 12:03:52;;;;;;;348.10;297.33;;;;;;;;;;5009685;28;20283;-53
2022/08/26 12:06:21;;;;;;;370.63;312.75;;;;;;;;;;5009343;28;20277;-54
2022/08/26 12:08:48;;;;;;;395.33;325.85;;;;;;;;;;5008476;28;20562;-53
2022/08/26 12:11:25;;;;;;;389.38;325.65;;;;;;;;;;5009328;28;20229;-54
2022/08/26 12:13:59;;;;;;;388.15;326.38;;;;;;;;;;5008799;28;20755;-53
2022/08/26 12:16:26;;;;;;;399.70;333.27;;;;;;;;;;5008474;28;20224;-53
2022/08/26 12:18:52;;;;;;;387.85;330.50;;;;;;;;;;5008591;28;20228;-53
2022/08/26 12:21:24;;;;;;;397.98;337.30;;;;;;;;;;5008828;28;20175;-53
2022/08/26 12:23:51;;;;;;;394.30;336.70;;;;;;;;;;5024716;28;20807;-53
2022/08/26 12:26:20;;;;;;;391.75;335.67;;;;;;;;;;5008980;28;20216;-53
2022/08/26 12:28:47;;;;;;;396.15;343.55;;;;;;;;;;5008444;28;20700;-54
2022/08/26 12:31:19;;;;;;;394.10;339.92;;;;;;;;;;5008459;28;20216;-53
2022/08/26 12:33:45;;;;;;;392.50;349.35;;;;;;;;;;5008143;28;20296;-53
2022/08/26 12:36:11;;;;;;;394.17;349.88;;;;;;;;;;5008939;28;20744;-53
2022/08/26 12:38:39;;;;;;;410.90;365.35;;;;;;;;;;5006694;28;20299;-53
2022/08/26 12:41:05;;;;;;;393.95;350.55;;;;;;;;;;5007958;28;20217;-52
2022/08/26 12:43:40;;;;;;;393.33;350.75;;;;;;;;;;5008155;28;20727;-53
2022/08/26 12:46:07;;;;;;;402.35;355.00;;;;;;;;;;5007002;28;20655;-53
2022/08/26 12:48:35;;;;;;;405.00;361.83;;;;;;;;;;5007997;28;20704;-54
2022/08/26 12:51:01;;;;;;;410.45;366.63;;;;;;;;;;5007828;28;20604;-53
2022/08/26 12:53:28;;;;;;;396.30;355.02;;;;;;;;;;5008590;28;20609;-53
2022/08/26 12:55:59;;;;;;;418.35;373.63;;;;;;;;;;5007583;28;20248;-52
2022/08/26 12:58:30;;;;;;;416.67;371.98;;;;;;;;;;5008337;28;20209;-53
2022/08/26 13:01:05;;;;;;;412.27;367.88;;;;;;;;;;5022783;28;20624;-53
2022/08/26 13:03:36;;;;;;;418.52;374.35;;;;;;;;;;5007841;28;20200;-53
2022/08/26 13:06:16;;;;;;;421.17;375.65;;;;;;;;;;5008436;28;20643;-53
2022/08/26 13:09:04;;;;;;;419.00;375.05;;;;;;;;;;5007905;28;20527;-53
2022/08/26 13:11:32;;;;;;;444.77;398.10;;;;;;;;;;5005727;28;20576;-54
2022/08/26 13:14:00;;;;;;;417.27;374.48;;;;;;;;;;5006993;28;20724;-53
2022/08/26 13:16:26;;;;;;;445.38;401.50;;;;;;;;;;5008025;28;20252;-53
2022/08/26 13:18:54;;;;;;;430.27;388.30;;;;;;;;;;5007845;28;20791;-53
2022/08/26 13:21:21;;;;;;;436.90;392.00;;;;;;;;;;5008517;28;20252;-53
2022/08/26 13:23:49;;;;;;;425.75;381.55;;;;;;;;;;5007663;28;20252;-52
2022/08/26 13:26:15;;;;;;;443.17;399.08;;;;;;;;;;5007378;28;20760;-53
2022/08/26 13:28:42;;;;;;;453.23;405.65;;;;;;;;;;5007340;28;20304;-54
2022/08/26 13:31:09;;;;;;;448.67;402.55;;;;;;;;;;5006655;28;20208;-54
2022/08/26 13:33:36;;;;;;;463.10;415.57;;;;;;;;;;5005735;28;20700;-53
2022/08/26 13:36:02;;;;;;;445.27;400.95;;;;;;;;;;5005745;28;20195;-53
2022/08/26 13:38:28;;;;;;;456.00;411.48;;;;;;;;;;5007591;28;20216;-53
2022/08/26 13:40:54;;;;;;;454.80;409.65;;;;;;;;;;5022472;28;20224;-54
2022/08/26 13:43:20;;;;;;;448.35;403.20;;;;;;;;;;5006829;28;20216;-53
2022/08/26 13:45:48;;;;;;;458.58;412.48;;;;;;;;;;5006681;28;20323;-53
2022/08/26 13:48:16;;;;;;;472.02;427.88;;;;;;;;;;5007543;28;20196;-53
2022/08/26 13:50:42;;;;;;;484.65;435.40;;;;;;;;;;5006123;28;20228;-54
2022/08/26 13:53:07;;;;;;;466.73;421.38;;;;;;;;;;5005370;28;20225;-53
2022/08/26 13:55:34;;;;;;;468.77;423.33;;;;;;;;;;5007082;28;20225;-53
2022/08/26 13:57:59;;;;;;;472.75;426.70;;;;;;;;;;5008867;28;20212;-53
2022/08/26 14:00:25;;;;;;;496.05;446.98;;;;;;;;;;5011202;28;20181;-53
2022/08/26 14:02:52;;;;;;;477.45;435.23;;;;;;;;;;5009574;28;20653;-54
2022/08/26 14:05:18;;;;;;;507.65;461.02;;;;;;;;;;5010822;28;20524;-55
2022/08/26 14:07:44;;;;;;;516.63;468.92;;;;;;;;;;5010023;28;20244;-55
2022/08/26 14:10:11;;;;;;;500.95;455.95;;;;;;;;;;5008006;28;20211;-55
2022/08/26 14:12:38;;;;;;;508.08;461.80;;;;;;;;;;5018641;28;20235;-55
2022/08/26 14:15:05;;;;;;;512.80;466.65;;;;;;;;;;4996579;28;20194;-55